Time;durP1;ratioP1;P1;durP2;ratioP2;P2;SDS_P1;SDS_P2;PMS_P1;PMS_P2;Temp;Humidity;BMP_temperature;BMP_pressure;BME280_temperature;BME280_humidity;BME280_pressure;Samples;Min_cycle;Max_cycle;Signal;HPM_P1;HPM_P2
2022/06/16 00:01:02;;;;;;;7.50;4.30;;;16.40;99.90;;;;;;5051880;28;20461;-65
2022/06/16 00:03:27;;;;;;;11.95;4.40;;;16.30;99.90;;;;;;5051788;28;20119;-63
2022/06/16 00:05:53;;;;;;;9.95;3.90;;;16.30;99.90;;;;;;5051424;28;20367;-64
2022/06/16 00:08:19;;;;;;;10.38;4.63;;;16.30;99.90;;;;;;5051520;28;20037;-65
2022/06/16 00:13:36;;;;;;;11.43;4.60;;;16.20;99.90;;;;;;5051536;28;20493;-64
2022/06/16 00:16:03;;;;;;;12.55;4.25;;;16.10;99.90;;;;;;5051829;28;20043;-64
2022/06/16 00:18:30;;;;;;;7.25;4.05;;;16.10;99.90;;;;;;5051841;28;20040;-63
2022/06/16 00:20:55;;;;;;;7.93;4.00;;;16.10;99.90;;;;;;5051727;28;20033;-68
2022/06/16 00:23:21;;;;;;;11.13;4.78;;;16.00;99.90;;;;;;5051403;28;20120;-66
2022/06/16 00:25:47;;;;;;;10.95;4.15;;;16.00;99.90;;;;;;5051318;28;20067;-63
2022/06/16 00:28:12;;;;;;;6.85;4.15;;;16.00;99.90;;;;;;5051267;28;20047;-65
2022/06/16 00:30:38;;;;;;;9.32;4.95;;;16.00;99.90;;;;;;5051306;28;20059;-64
2022/06/16 00:33:04;;;;;;;11.45;5.00;;;16.00;99.90;;;;;;5051154;28;20029;-63
2022/06/16 00:35:29;;;;;;;9.75;4.88;;;16.00;99.90;;;;;;5051088;28;20040;-63
2022/06/16 00:37:55;;;;;;;14.25;5.75;;;15.90;99.90;;;;;;5051279;28;20017;-65
2022/06/16 00:40:21;;;;;;;10.82;5.05;;;15.90;99.90;;;;;;5051516;28;20059;-63
2022/06/16 00:42:47;;;;;;;10.98;4.72;;;15.90;99.90;;;;;;5051484;28;20082;-63
2022/06/16 00:46:01;;;;;;;10.18;4.40;;;15.80;99.90;;;;;;5049966;28;20443;-66
2022/06/16 00:48:43;;;;;;;8.85;4.32;;;15.80;99.90;;;;;;5013043;28;20383;-66
2022/06/16 00:51:25;;;;;;;7.43;4.57;;;15.70;99.90;;;;;;5031470;28;20053;-63
2022/06/16 00:53:51;;;;;;;;;;;15.70;99.90;;;;;;5034623;28;20022;-64
2022/06/16 00:56:19;;;;;;;9.07;4.47;;;15.70;99.90;;;;;;5034941;28;19936;-67
2022/06/16 00:58:50;;;;;;;11.27;5.10;;;15.60;99.90;;;;;;5033444;28;20467;-66
2022/06/16 01:01:20;;;;;;;11.98;5.00;;;15.60;99.90;;;;;;5033723;28;20037;-63
2022/06/16 01:06:31;;;;;;;8.93;4.90;;;15.60;99.90;;;;;;5034783;28;20375;-63
2022/06/16 01:09:02;;;;;;;10.18;4.82;;;15.50;99.90;;;;;;5034461;28;20025;-62
2022/06/16 01:14:42;;;;;;;9.00;4.85;;;15.50;99.90;;;;;;5034481;28;20036;-64
2022/06/16 01:17:29;;;;;;;6.30;3.75;;;15.40;99.90;;;;;;5033327;28;20073;-64
2022/06/16 01:20:11;;;;;;;7.50;4.18;;;15.40;99.90;;;;;;5034492;28;20032;-64
2022/06/16 01:22:46;;;;;;;9.57;4.60;;;15.40;99.90;;;;;;5034502;28;20076;-68
2022/06/16 01:25:31;;;;;;;9.45;4.43;;;15.40;99.90;;;;;;5034468;28;20021;-66
2022/06/16 01:28:32;;;;;;;11.88;4.90;;;15.40;99.90;;;;;;5033785;28;20025;-63
2022/06/16 01:31:21;;;;;;;7.55;4.43;;;15.40;99.90;;;;;;5034429;28;20033;-64
2022/06/16 01:33:54;;;;;;;11.13;4.90;;;15.30;99.90;;;;;;5034367;28;20014;-63
2022/06/16 01:36:31;;;;;;;9.55;4.82;;;15.30;99.90;;;;;;5034282;28;20028;-63
2022/06/16 01:39:03;;;;;;;11.27;4.60;;;15.30;99.90;;;;;;5033008;28;20413;-63
2022/06/16 01:41:41;;;;;;;10.15;4.50;;;15.30;99.90;;;;;;5034045;28;20071;-64
2022/06/16 01:44:15;;;;;;;9.43;4.72;;;15.20;99.90;;;;;;5035357;28;20060;-66
2022/06/16 01:46:44;;;;;;;10.10;4.53;;;15.20;99.90;;;;;;5053737;28;20070;-63
2022/06/16 01:49:27;;;;;;;11.30;5.03;;;15.20;99.90;;;;;;5053892;28;20048;-64
2022/06/16 01:51:57;;;;;;;10.80;4.50;;;15.20;99.90;;;;;;5053237;28;20067;-63
2022/06/16 01:54:27;;;;;;;11.00;4.55;;;15.10;99.90;;;;;;5052901;28;20036;-65
2022/06/16 01:57:01;;;;;;;9.45;4.10;;;15.10;99.90;;;;;;5053902;28;20451;-63
2022/06/16 01:59:38;;;;;;;12.70;4.90;;;15.10;99.90;;;;;;5053813;28;20021;-64
2022/06/16 02:02:11;;;;;;;11.82;4.63;;;15.10;99.90;;;;;;5053691;28;20453;-64
2022/06/16 02:04:53;;;;;;;7.70;3.80;;;15.10;99.90;;;;;;5052148;28;20040;-66
2022/06/16 02:07:23;;;;;;;;;;;15.10;99.90;;;;;;5051264;28;20090;-65
2022/06/16 02:09:54;;;;;;;6.78;3.88;;;15.10;99.90;;;;;;5053669;28;19900;-63
2022/06/16 02:15:45;;;;;;;8.40;3.83;;;15.10;99.90;;;;;;5053936;28;20036;-64
2022/06/16 02:18:14;;;;;;;10.00;4.10;;;15.10;99.90;;;;;;5053146;28;20024;-67
2022/06/16 02:20:50;;;;;;;8.20;3.72;;;15.00;99.90;;;;;;5053449;28;20093;-65
2022/06/16 02:23:15;;;;;;;7.85;3.83;;;15.10;99.90;;;;;;5053437;28;20456;-64
2022/06/16 02:25:44;;;;;;;11.27;4.10;;;15.00;99.90;;;;;;5053502;28;20036;-63
2022/06/16 02:28:12;;;;;;;8.32;3.97;;;15.10;99.90;;;;;;5051503;28;20385;-66
2022/06/16 02:31:05;;;;;;;10.07;4.93;;;15.10;99.90;;;;;;5052886;28;20044;-68
2022/06/16 02:33:49;;;;;;;10.65;4.40;;;15.10;99.90;;;;;;5031340;28;20041;-63
2022/06/16 02:36:52;;;;;;;8.80;3.97;;;15.10;99.90;;;;;;5031591;28;20230;-63
2022/06/16 02:39:41;;;;;;;7.25;3.75;;;15.10;99.90;;;;;;5033111;28;20025;-63
2022/06/16 02:42:35;;;;;;;12.95;3.85;;;15.10;99.90;;;;;;5028771;28;20425;-63
2022/06/16 02:45:12;;;;;;;9.00;4.03;;;15.10;99.90;;;;;;5032552;28;20063;-63
2022/06/16 02:48:04;;;;;;;7.95;4.13;;;15.00;99.90;;;;;;5047086;28;20044;-68
2022/06/16 02:50:33;;;;;;;8.88;4.28;;;15.10;99.90;;;;;;5052496;28;20028;-65
2022/06/16 02:54:28;;;;;;;9.63;4.15;;;15.10;99.90;;;;;;5052667;28;20021;-64
2022/06/16 02:56:36;;;;;;;9.65;3.88;;;15.10;99.90;;;;;;5038910;28;20175;-63
2022/06/16 02:59:08;;;;;;;9.60;3.90;;;15.10;99.90;;;;;;5051184;28;20047;-63
2022/06/16 03:01:34;;;;;;;9.52;3.92;;;15.10;99.90;;;;;;5052698;28;20054;-65
2022/06/16 03:04:01;;;;;;;8.38;3.80;;;15.10;99.90;;;;;;5052320;28;20029;-64
2022/06/16 03:06:27;;;;;;;9.43;3.80;;;15.10;99.90;;;;;;5052558;28;20017;-66
2022/06/16 03:08:52;;;;;;;6.57;3.67;;;15.10;99.90;;;;;;5052156;28;20025;-65
2022/06/16 03:11:18;;;;;;;6.28;3.83;;;15.10;99.90;;;;;;5052423;28;20043;-65
2022/06/16 03:13:44;;;;;;;11.13;4.40;;;15.10;99.90;;;;;;5045410;28;20048;-67
2022/06/16 03:16:10;;;;;;;9.05;3.97;;;15.10;99.90;;;;;;5051315;28;20506;-65
2022/06/16 03:18:35;;;;;;;9.23;4.05;;;15.10;99.90;;;;;;5052302;28;20036;-67
2022/06/16 03:21:01;;;;;;;7.47;3.88;;;15.10;99.90;;;;;;5052469;28;20017;-63
2022/06/16 03:23:27;;;;;;;8.63;4.18;;;15.10;99.90;;;;;;5052277;28;20033;-63
2022/06/16 03:25:53;;;;;;;10.43;3.90;;;15.10;99.90;;;;;;5052030;28;20044;-66
2022/06/16 03:28:19;;;;;;;11.57;4.80;;;15.10;99.90;;;;;;5052025;28;20036;-64
2022/06/16 03:30:45;;;;;;;12.27;4.22;;;15.10;99.90;;;;;;5051692;28;20041;-67
2022/06/16 03:33:11;;;;;;;8.98;4.15;;;15.10;99.90;;;;;;5051932;28;20025;-63
2022/06/16 03:35:38;;;;;;;8.00;3.80;;;15.10;99.90;;;;;;5050735;28;20037;-63
2022/06/16 03:38:11;;;;;;;13.27;4.63;;;15.10;99.90;;;;;;5050559;28;20025;-66
2022/06/16 03:40:37;;;;;;;8.90;4.55;;;15.10;99.90;;;;;;5051822;28;20017;-68
2022/06/16 03:43:05;;;;;;;9.90;4.50;;;15.10;99.90;;;;;;5051810;28;20070;-63
2022/06/16 03:45:30;;;;;;;8.90;4.68;;;15.10;99.90;;;;;;5051938;28;20017;-64
2022/06/16 03:47:56;;;;;;;10.35;4.65;;;15.10;99.90;;;;;;5051511;28;20043;-62
2022/06/16 03:50:22;;;;;;;13.35;4.63;;;15.10;99.90;;;;;;5049090;28;20031;-64
2022/06/16 03:52:47;;;;;;;10.10;4.70;;;15.10;99.90;;;;;;5051963;28;20035;-64
2022/06/16 03:55:13;;;;;;;11.27;5.28;;;15.10;99.90;;;;;;5052115;28;20052;-64
2022/06/16 03:57:38;;;;;;;8.75;4.70;;;15.20;99.90;;;;;;5052002;28;20029;-64
2022/06/16 04:00:06;;;;;;;7.85;4.55;;;15.20;99.90;;;;;;5050318;28;20024;-63
2022/06/16 04:02:31;;;;;;;10.30;5.00;;;15.30;99.90;;;;;;5051655;28;20025;-63
2022/06/16 04:04:57;;;;;;;12.13;5.57;;;15.30;99.90;;;;;;5051511;28;20031;-64
2022/06/16 04:07:23;;;;;;;10.63;5.47;;;15.30;99.90;;;;;;5051482;28;20033;-62
2022/06/16 04:09:48;;;;;;;9.15;4.88;;;15.40;99.90;;;;;;5051941;28;20025;-64
2022/06/16 04:12:14;;;;;;;11.38;4.75;;;15.40;99.90;;;;;;5051321;28;20025;-64
2022/06/16 04:14:39;;;;;;;13.85;5.57;;;15.40;99.90;;;;;;5051379;28;20017;-63
2022/06/16 04:17:06;;;;;;;11.63;5.18;;;15.40;99.90;;;;;;5050491;28;20370;-62
2022/06/16 04:19:31;;;;;;;8.80;5.28;;;15.40;99.90;;;;;;5051262;28;20044;-65
2022/06/16 04:21:57;;;;;;;11.60;5.75;;;15.40;99.90;;;;;;5051306;28;20071;-64
2022/06/16 04:24:23;;;;;;;12.05;6.15;;;15.40;99.90;;;;;;5050199;28;20029;-62
2022/06/16 04:26:51;;;;;;;13.63;6.47;;;15.40;99.90;;;;;;5051709;28;20036;-63
2022/06/16 04:29:18;;;;;;;11.40;5.45;;;15.50;99.90;;;;;;5055526;28;20021;-64
2022/06/16 04:31:44;;;;;;;13.23;5.88;;;15.50;99.90;;;;;;5055429;28;20049;-63
2022/06/16 04:34:10;;;;;;;12.70;5.80;;;15.60;99.90;;;;;;5055506;28;20021;-63
2022/06/16 04:36:36;;;;;;;12.43;6.45;;;15.60;99.90;;;;;;5055025;28;20141;-65
2022/06/16 04:39:02;;;;;;;15.40;6.15;;;15.70;99.90;;;;;;5054703;28;20132;-63
2022/06/16 04:41:29;;;;;;;10.65;6.00;;;15.80;99.90;;;;;;5054627;28;20036;-64
2022/06/16 04:43:55;;;;;;;15.02;5.65;;;15.80;99.90;;;;;;5055062;28;20098;-64
2022/06/16 04:46:23;;;;;;;12.15;5.38;;;15.90;99.90;;;;;;5055514;28;20033;-64
2022/06/16 04:48:49;;;;;;;12.02;6.15;;;16.00;99.90;;;;;;5055038;28;20032;-63
2022/06/16 04:51:16;;;;;;;10.05;5.30;;;16.00;99.90;;;;;;5055284;28;20078;-63
2022/06/16 04:53:41;;;;;;;9.00;5.43;;;16.10;99.90;;;;;;5055154;28;20100;-64
2022/06/16 04:56:07;;;;;;;10.98;5.72;;;16.20;99.90;;;;;;5054810;28;20064;-63
2022/06/16 04:58:33;;;;;;;11.23;5.15;;;16.30;99.90;;;;;;5055138;28;20348;-63
2022/06/16 05:00:59;;;;;;;13.93;5.60;;;16.40;99.90;;;;;;5054975;28;20029;-64
2022/06/16 05:03:26;;;;;;;9.15;4.68;;;16.50;99.90;;;;;;5055052;28;20029;-64
2022/06/16 05:05:53;;;;;;;12.70;5.55;;;16.70;99.90;;;;;;5055354;28;20059;-63
2022/06/16 05:08:19;;;;;;;11.77;5.50;;;16.80;99.90;;;;;;5054614;28;20049;-63
2022/06/16 05:10:49;;;;;;;18.25;5.60;;;16.90;99.90;;;;;;5055028;28;20025;-67
2022/06/16 05:13:15;;;;;;;14.30;5.30;;;17.10;99.90;;;;;;5055003;28;20033;-67
2022/06/16 05:15:41;;;;;;;9.32;4.75;;;17.30;99.90;;;;;;5054636;28;20021;-65
2022/06/16 05:18:08;;;;;;;10.45;5.00;;;17.40;99.90;;;;;;5054834;28;20021;-64
2022/06/16 05:20:36;;;;;;;11.88;5.03;;;17.60;99.80;;;;;;5054588;28;20036;-63
2022/06/16 05:23:01;;;;;;;10.98;5.28;;;17.80;99.90;;;;;;5054668;28;20032;-63
2022/06/16 05:25:27;;;;;;;11.13;5.00;;;18.10;99.90;;;;;;5054600;28;20017;-63
2022/06/16 05:27:53;;;;;;;10.32;5.43;;;18.60;99.30;;;;;;5054271;28;20410;-63
2022/06/16 05:30:19;;;;;;;11.82;5.13;;;19.10;98.70;;;;;;5054504;28;20029;-64
2022/06/16 05:32:45;;;;;;;11.30;5.35;;;19.80;97.90;;;;;;5054741;28;20028;-67
2022/06/16 05:35:11;;;;;;;11.05;5.53;;;20.50;96.00;;;;;;5054412;28;20066;-67
2022/06/16 05:37:37;;;;;;;14.07;4.97;;;21.10;95.10;;;;;;5054385;28;20035;-68
2022/06/16 05:40:04;;;;;;;12.05;5.28;;;21.80;94.10;;;;;;5053560;28;20017;-62
2022/06/16 05:42:30;;;;;;;11.50;4.80;;;22.50;93.40;;;;;;5054174;28;20028;-65
2022/06/16 05:44:56;;;;;;;13.07;4.47;;;23.20;92.10;;;;;;5054478;28;20052;-67
2022/06/16 05:47:22;;;;;;;10.23;4.60;;;23.80;91.40;;;;;;5054167;28;20454;-64
2022/06/16 05:49:47;;;;;;;12.18;4.88;;;24.40;90.60;;;;;;5054434;28;20019;-63
2022/06/16 05:52:19;;;;;;;11.48;4.82;;;24.90;87.80;;;;;;5054208;28;20021;-63
2022/06/16 05:54:45;;;;;;;;;;;25.40;87.40;;;;;;5054542;28;20547;-64
2022/06/16 05:57:11;;;;;;;11.43;5.10;;;25.90;85.10;;;;;;5053880;28;19948;-67
2022/06/16 05:59:38;;;;;;;10.05;4.53;;;26.30;82.40;;;;;;5053893;28;20059;-63
2022/06/16 06:02:07;;;;;;;11.40;4.55;;;26.30;82.80;;;;;;5053781;28;20029;-66
2022/06/16 06:04:32;;;;;;;8.07;4.35;;;26.30;80.80;;;;;;5052490;28;20047;-64
2022/06/16 06:06:59;;;;;;;8.80;4.35;;;26.60;80.00;;;;;;5054109;28;20024;-64
2022/06/16 06:18:00;;;;;;;13.38;4.18;;;28.50;75.30;;;;;;5053535;28;20035;-63
2022/06/16 06:20:26;;;;;;;10.20;4.03;;;29.10;71.20;;;;;;5053547;28;20028;-67
2022/06/16 06:22:51;;;;;;;9.35;4.00;;;29.50;70.10;;;;;;5053266;28;20028;-65
2022/06/16 06:25:17;;;;;;;8.73;4.10;;;29.90;68.60;;;;;;5053596;28;20028;-64
2022/06/16 06:27:45;;;;;;;9.80;3.65;;;30.30;67.50;;;;;;5053273;28;20024;-67
2022/06/16 06:30:12;;;;;;;9.18;4.47;;;30.60;67.20;;;;;;5053573;28;20056;-64
2022/06/16 06:32:38;;;;;;;12.93;3.90;;;30.90;65.90;;;;;;5053298;28;20029;-64
2022/06/16 06:35:05;;;;;;;8.35;4.32;;;31.30;65.60;;;;;;5053602;28;20401;-64
2022/06/16 06:37:30;;;;;;;6.80;3.97;;;31.60;64.10;;;;;;5053072;28;20036;-65
2022/06/16 06:39:56;;;;;;;12.00;4.60;;;31.80;63.60;;;;;;5053247;28;20040;-66
2022/06/16 06:42:22;;;;;;;7.57;3.67;;;32.20;63.60;;;;;;5052918;28;20024;-65
2022/06/16 06:44:48;;;;;;;8.27;3.63;;;32.50;61.60;;;;;;5053111;28;20029;-64
2022/06/16 06:47:21;;;;;;;11.88;4.28;;;32.60;60.90;;;;;;5052998;28;20159;-66
2022/06/16 06:49:47;;;;;;;12.00;4.30;;;32.80;60.20;;;;;;5052521;28;20037;-64
2022/06/16 06:52:13;;;;;;;10.02;3.97;;;33.10;59.30;;;;;;5052798;28;20048;-64
2022/06/16 06:54:39;;;;;;;12.02;3.97;;;33.10;58.70;;;;;;5052991;28;20021;-63
2022/06/16 06:57:06;;;;;;;8.05;4.07;;;33.00;57.40;;;;;;5053046;28;20040;-64
2022/06/16 06:59:31;;;;;;;11.93;3.95;;;33.10;57.00;;;;;;5052974;28;20021;-63
2022/06/16 07:01:57;;;;;;;43.30;8.38;;;33.20;56.10;;;;;;5052609;28;20017;-64
2022/06/16 07:04:22;;;;;;;10.73;3.83;;;33.10;54.40;;;;;;5052335;28;20362;-65
2022/06/16 07:06:49;;;;;;;20.38;4.80;;;33.10;54.60;;;;;;5050342;28;20505;-64
2022/06/16 07:09:17;;;;;;;8.25;2.92;;;33.40;54.50;;;;;;5052812;28;20024;-63
2022/06/16 07:11:43;;;;;;;8.80;3.20;;;33.60;53.60;;;;;;5052817;28;20020;-63
2022/06/16 07:14:09;;;;;;;7.00;3.30;;;33.80;53.00;;;;;;5052714;28;20028;-64
2022/06/16 07:16:37;;;;;;;9.00;3.25;;;33.80;52.20;;;;;;5052415;28;20687;-66
2022/06/16 07:19:03;;;;;;;7.15;2.95;;;33.80;52.10;;;;;;5052526;28;20033;-65
2022/06/16 07:21:29;;;;;;;7.03;3.03;;;33.80;51.40;;;;;;5051198;28;20021;-65
2022/06/16 07:23:55;;;;;;;5.40;2.83;;;34.10;51.70;;;;;;5052759;28;20091;-64
2022/06/16 07:26:22;;;;;;;9.05;3.45;;;34.40;51.60;;;;;;5052488;28;20119;-68
2022/06/16 07:28:48;;;;;;;6.30;2.47;;;34.60;50.70;;;;;;5052349;28;20040;-66
2022/06/16 07:31:14;;;;;;;6.88;2.65;;;34.60;50.80;;;;;;5052146;28;20045;-65
2022/06/16 07:33:40;;;;;;;10.00;3.15;;;34.70;50.10;;;;;;5052405;28;20021;-66
2022/06/16 07:36:09;;;;;;;8.55;2.85;;;34.60;50.80;;;;;;5052544;28;20036;-64
2022/06/16 07:38:35;;;;;;;10.32;2.83;;;34.70;50.00;;;;;;5052215;28;20377;-64
2022/06/16 07:43:44;;;;;;;6.60;2.33;;;34.70;49.90;;;;;;5052322;28;20029;-64
2022/06/16 07:46:10;;;;;;;5.70;2.53;;;34.80;49.40;;;;;;5052022;28;20017;-65
2022/06/16 07:48:36;;;;;;;6.00;2.25;;;34.90;49.30;;;;;;5052315;28;20142;-64
2022/06/16 07:51:02;;;;;;;5.75;2.35;;;35.00;49.30;;;;;;5052295;28;20461;-64
2022/06/16 07:53:27;;;;;;;7.20;2.08;;;34.90;49.30;;;;;;5051891;28;20025;-66
2022/06/16 07:55:53;;;;;;;6.07;2.03;;;34.70;49.10;;;;;;5052170;28;20029;-68
2022/06/16 07:58:19;;;;;;;5.05;2.30;;;34.30;49.10;;;;;;5052267;28;20017;-65
2022/06/16 08:00:45;;;;;;;6.90;2.08;;;33.90;49.50;;;;;;5052650;28;20037;-65
2022/06/16 08:03:10;;;;;;;6.38;2.20;;;33.40;49.80;;;;;;5056012;28;20103;-65
2022/06/16 08:05:36;;;;;;;2.40;1.98;;;32.70;50.50;;;;;;5055877;28;20040;-68
2022/06/16 08:08:02;;;;;;;5.50;2.45;;;32.30;51.20;;;;;;5055698;28;20048;-64
2022/06/16 08:10:33;;;;;;;4.15;1.90;;;31.90;51.70;;;;;;5056191;28;20138;-65
2022/06/16 08:12:59;;;;;;;6.75;2.25;;;31.80;51.90;;;;;;5056274;28;20053;-64
2022/06/16 08:15:24;;;;;;;4.97;2.33;;;31.90;52.20;;;;;;5055154;28;20075;-65
2022/06/16 08:17:53;;;;;;;7.20;2.13;;;32.00;51.80;;;;;;5056867;28;20474;-64
2022/06/16 08:20:19;;;;;;;3.67;2.13;;;32.30;51.40;;;;;;5056506;28;20025;-67
2022/06/16 08:22:45;;;;;;;4.65;2.38;;;32.80;51.30;;;;;;5056637;28;20427;-64
2022/06/16 08:25:15;;;;;;;5.95;2.25;;;33.10;50.70;;;;;;5055242;28;20378;-66
2022/06/16 08:27:44;;;;;;;4.05;2.22;;;33.70;50.60;;;;;;5056416;28;20112;-64
2022/06/16 08:30:13;;;;;;;6.35;2.42;;;34.40;50.00;;;;;;5056532;28;20458;-67
2022/06/16 08:32:40;;;;;;;6.80;2.42;;;35.10;49.80;;;;;;5056298;28;20041;-69
2022/06/16 08:35:06;;;;;;;4.63;2.08;;;35.90;49.00;;;;;;5055699;28;20024;-66
2022/06/16 08:37:32;;;;;;;5.53;2.40;;;36.70;48.30;;;;;;5056379;28;20029;-65
2022/06/16 08:39:57;;;;;;;3.05;2.03;;;37.30;47.50;;;;;;5054894;28;20021;-65
2022/06/16 08:42:28;;;;;;;5.28;2.30;;;37.90;47.10;;;;;;5056346;28;20021;-66
2022/06/16 08:44:59;;;;;;;;;;;38.60;46.10;;;;;;5056921;28;20194;-65
2022/06/16 08:47:52;;;;;;;5.95;2.35;;;39.20;45.60;;;;;;5056170;28;19964;-64
2022/06/16 08:50:30;;;;;;;7.85;2.80;;;39.60;45.50;;;;;;5056266;28;20025;-65
2022/06/16 08:53:26;;;;;;;7.28;2.42;;;39.90;44.70;;;;;;5056221;28;20017;-64
2022/06/16 08:56:11;;;;;;;7.13;3.13;;;39.90;44.30;;;;;;5055832;28;20043;-67
2022/06/16 08:58:53;;;;;;;6.93;2.30;;;40.10;44.10;;;;;;5055823;28;20039;-63
2022/06/16 09:01:44;;;;;;;6.45;2.25;;;40.40;44.00;;;;;;5055939;28;20023;-64
2022/06/16 09:04:33;;;;;;;9.93;2.70;;;40.60;43.30;;;;;;5055533;28;20017;-64
2022/06/16 09:07:35;;;;;;;8.65;2.53;;;40.90;42.90;;;;;;5055536;28;20025;-64
2022/06/16 09:10:16;;;;;;;5.88;2.22;;;41.30;42.50;;;;;;5055768;28;20070;-65
2022/06/16 09:12:59;;;;;;;4.32;2.38;;;41.80;42.20;;;;;;5055165;28;20021;-64
2022/06/16 09:15:43;;;;;;;6.28;2.35;;;42.00;41.80;;;;;;5054238;28;20347;-65
2022/06/16 09:18:23;;;;;;;4.70;2.58;;;42.10;41.70;;;;;;5055246;28;20613;-67
2022/06/16 09:21:03;;;;;;;6.28;2.40;;;42.30;41.40;;;;;;5060028;28;20017;-65
2022/06/16 09:24:10;;;;;;;7.75;2.60;;;42.30;41.00;;;;;;5058908;28;20056;-66
2022/06/16 09:26:56;;;;;;;5.97;2.08;;;42.40;40.60;;;;;;5062339;28;20024;-64
2022/06/16 09:29:39;;;;;;;6.13;2.60;;;42.40;40.40;;;;;;5064009;28;20472;-64
2022/06/16 09:32:38;;;;;;;4.78;2.13;;;42.50;40.30;;;;;;5075508;28;20144;-65
2022/06/16 09:35:24;;;;;;;6.30;2.28;;;42.80;40.20;;;;;;5069330;28;20074;-66
2022/06/16 09:37:57;;;;;;;6.70;2.33;;;43.00;40.80;;;;;;5055244;28;20484;-69
2022/06/16 09:40:48;;;;;;;5.85;2.40;;;43.30;39.70;;;;;;5055199;28;20028;-68
2022/06/16 09:43:25;;;;;;;6.07;2.40;;;43.40;39.50;;;;;;5055303;28;20382;-66
2022/06/16 09:45:59;;;;;;;6.18;2.40;;;43.40;39.40;;;;;;5055070;28;20021;-65
2022/06/16 09:48:40;;;;;;;4.35;2.35;;;43.40;39.20;;;;;;5054960;28;20094;-65
2022/06/16 09:51:41;;;;;;;9.95;2.95;;;43.60;39.30;;;;;;5055142;28;20017;-65
2022/06/16 09:54:20;;;;;;;10.55;3.60;;;44.00;39.00;;;;;;5030610;28;20045;-65
2022/06/16 09:57:02;;;;;;;11.45;4.75;;;44.30;38.70;;;;;;5034684;28;20053;-62
2022/06/16 09:59:33;;;;;;;3.35;2.10;;;44.60;38.60;;;;;;5034886;28;20113;-64
2022/06/16 10:02:03;;;;;;;7.45;2.50;;;44.70;38.20;;;;;;5034802;28;20516;-63
2022/06/16 10:04:29;;;;;;;4.55;2.03;;;44.80;37.90;;;;;;5035033;28;20029;-66
2022/06/16 10:06:54;;;;;;;4.70;1.92;;;44.70;37.70;;;;;;5034830;28;20032;-64
2022/06/16 10:09:39;;;;;;;4.85;1.95;;;44.30;38.00;;;;;;5034457;28;20025;-65
2022/06/16 10:12:28;;;;;;;7.22;2.30;;;44.30;38.10;;;;;;5034367;28;20025;-64
2022/06/16 10:15:05;;;;;;;5.47;2.13;;;44.30;38.20;;;;;;5034862;28;20412;-67
2022/06/16 10:17:33;;;;;;;3.50;1.90;;;44.20;37.70;;;;;;5034763;28;20068;-64
2022/06/16 10:19:59;;;;;;;6.28;2.22;;;44.30;37.80;;;;;;5034512;28;20049;-65
2022/06/16 10:22:28;;;;;;;5.03;2.15;;;44.60;37.90;;;;;;5034309;28;20022;-65
2022/06/16 10:25:07;;;;;;;6.75;2.25;;;44.70;37.70;;;;;;5034310;28;20057;-64
2022/06/16 10:27:44;;;;;;;4.70;2.00;;;44.80;37.50;;;;;;5067842;28;20025;-64
2022/06/16 10:30:32;;;;;;;4.68;2.58;;;45.00;37.00;;;;;;5074176;28;20099;-64
2022/06/16 10:33:16;;;;;;;7.32;2.78;;;45.20;37.90;;;;;;5074097;28;20032;-64
2022/06/16 10:35:51;;;;;;;4.82;2.90;;;45.20;38.70;;;;;;5074138;28;20473;-68
2022/06/16 10:38:27;;;;;;;4.97;2.50;;;45.10;38.60;;;;;;5073643;28;20045;-64
2022/06/16 10:40:55;;;;;;;4.68;2.28;;;44.80;39.00;;;;;;5074220;28;20123;-68
2022/06/16 10:43:22;;;;;;;6.90;2.72;;;44.90;38.80;;;;;;5073730;28;20027;-66
2022/06/16 10:46:08;;;;;;;5.90;2.65;;;44.90;38.50;;;;;;5073719;28;20035;-66
2022/06/16 10:48:37;;;;;;;6.28;2.95;;;45.00;38.60;;;;;;5073308;28;20426;-64
2022/06/16 10:51:16;;;;;;;5.97;2.80;;;45.20;38.50;;;;;;5073171;28;20441;-65
2022/06/16 10:54:05;;;;;;;8.63;3.00;;;45.30;38.50;;;;;;5073344;28;20059;-65
2022/06/16 10:56:30;;;;;;;7.82;2.53;;;45.40;38.60;;;;;;5073234;28;20024;-67
2022/06/16 10:59:27;;;;;;;4.03;2.25;;;45.40;38.30;;;;;;5072614;28;20044;-64
2022/06/16 11:01:59;;;;;;;5.47;2.80;;;45.50;38.30;;;;;;5072789;28;20039;-65
2022/06/16 11:04:35;;;;;;;7.22;2.95;;;45.40;38.20;;;;;;5073057;28;20020;-65
2022/06/16 11:07:02;;;;;;;5.68;2.45;;;45.30;38.00;;;;;;5073076;28;20020;-67
2022/06/16 11:09:30;;;;;;;4.25;2.38;;;45.20;38.10;;;;;;5073408;28;20025;-64
2022/06/16 11:12:01;;;;;;;6.82;2.60;;;45.00;39.00;;;;;;5073285;28;20050;-65
2022/06/16 11:14:39;;;;;;;;;;;44.70;38.30;;;;;;5073457;28;20030;-66
2022/06/16 11:17:36;;;;;;;6.15;2.20;;;44.50;38.80;;;;;;5073213;28;19907;-66
2022/06/16 11:20:22;;;;;;;3.83;2.33;;;44.30;38.80;;;;;;5071776;28;20139;-65
2022/06/16 11:22:50;;;;;;;5.63;2.53;;;44.30;39.30;;;;;;5073153;28;20020;-63
2022/06/16 11:25:32;;;;;;;5.55;2.50;;;44.00;38.70;;;;;;5072705;28;20412;-64
2022/06/16 11:28:06;;;;;;;6.18;2.42;;;43.70;38.80;;;;;;5032700;28;20027;-64
2022/06/16 11:30:50;;;;;;;7.00;2.72;;;43.50;39.10;;;;;;5032358;28;20041;-64
2022/06/16 11:36:48;;;;;;;5.90;2.45;;;43.30;39.10;;;;;;5050677;28;20087;-64
2022/06/16 11:39:24;;;;;;;4.57;2.22;;;43.20;39.50;;;;;;5053032;28;20056;-64
2022/06/16 11:41:51;;;;;;;7.55;2.75;;;43.20;39.50;;;;;;5053366;28;20020;-64
2022/06/16 11:44:46;;;;;;;6.20;2.60;;;43.20;39.60;;;;;;5053150;28;20155;-64
2022/06/16 11:47:31;;;;;;;3.95;2.10;;;43.10;39.40;;;;;;5052830;28;20096;-65
2022/06/16 11:50:26;;;;;;;8.45;2.63;;;43.20;39.30;;;;;;5053223;28;20039;-64
2022/06/16 11:53:27;;;;;;;3.85;2.47;;;43.40;39.20;;;;;;5052656;28;20025;-66
2022/06/16 11:56:18;;;;;;;7.00;2.60;;;43.30;39.00;;;;;;5053133;28;20477;-65
2022/06/16 11:59:02;;;;;;;3.22;2.38;;;43.40;38.90;;;;;;5053036;28;20040;-64
2022/06/16 12:01:40;;;;;;;6.63;2.42;;;43.30;38.90;;;;;;5052883;28;20045;-67
2022/06/16 12:04:47;;;;;;;4.95;2.47;;;43.00;39.10;;;;;;5053047;28;20021;-64
2022/06/16 12:07:38;;;;;;;5.30;2.40;;;43.00;39.10;;;;;;5053890;28;20075;-65
2022/06/16 12:10:28;;;;;;;7.07;2.60;;;42.90;39.00;;;;;;5052650;28;20481;-63
2022/06/16 12:13:15;;;;;;;6.70;3.63;;;42.90;39.00;;;;;;5053013;28;20036;-65
2022/06/16 12:15:44;;;;;;;4.88;2.92;;;42.90;39.10;;;;;;5052853;28;20021;-64
2022/06/16 12:18:18;;;;;;;5.57;2.78;;;43.00;39.00;;;;;;5052707;28;20458;-63
2022/06/16 12:20:55;;;;;;;7.53;2.60;;;43.00;38.90;;;;;;5052706;28;20108;-64
2022/06/16 12:23:25;;;;;;;5.50;2.80;;;43.00;38.80;;;;;;5052606;28;20413;-69
2022/06/16 12:26:20;;;;;;;6.57;2.50;;;42.70;38.90;;;;;;5052455;28;20028;-65
2022/06/16 12:29:11;;;;;;;6.53;2.63;;;42.60;39.10;;;;;;4998101;28;20356;-65
2022/06/16 12:31:46;;;;;;;;;;;42.50;39.00;;;;;;5052709;28;20045;-66
2022/06/16 12:34:19;;;;;;;8.10;2.70;;;42.40;39.00;;;;;;5051942;28;19909;-64
2022/06/16 12:36:52;;;;;;;6.63;2.92;;;42.10;39.10;;;;;;5051872;28;20054;-65
2022/06/16 12:39:31;;;;;;;6.47;2.97;;;41.80;39.30;;;;;;5050096;28;20042;-68
2022/06/16 12:42:02;;;;;;;6.53;3.20;;;41.50;39.50;;;;;;5050589;28;20021;-64
2022/06/16 12:44:37;;;;;;;7.13;2.90;;;41.30;39.50;;;;;;5051829;28;20013;-64
2022/06/16 12:47:10;;;;;;;6.97;3.40;;;40.90;39.80;;;;;;5051718;28;20013;-64
2022/06/16 12:50:01;;;;;;;5.53;2.75;;;40.20;40.10;;;;;;5053563;28;20017;-64
2022/06/16 12:52:53;;;;;;;5.90;3.10;;;39.40;40.90;;;;;;5055125;28;20047;-64
2022/06/16 12:55:25;;;;;;;9.32;3.58;;;38.50;41.30;;;;;;5053853;28;20037;-65
2022/06/16 12:58:10;;;;;;;7.43;2.67;;;37.70;42.00;;;;;;5055129;28;20025;-68
2022/06/16 13:00:41;;;;;;;8.75;2.85;;;37.00;42.60;;;;;;5052802;28;20350;-65
2022/06/16 13:03:09;;;;;;;7.25;3.95;;;36.60;42.70;;;;;;5055716;28;20017;-64
2022/06/16 13:05:36;;;;;;;7.13;3.50;;;35.90;43.10;;;;;;5055370;28;20021;-63
2022/06/16 13:08:03;;;;;;;7.10;3.80;;;35.40;43.80;;;;;;5055327;28;20024;-64
2022/06/16 13:10:43;;;;;;;9.65;4.10;;;34.90;44.10;;;;;;5055266;28;20504;-64
2022/06/16 13:13:09;;;;;;;6.68;3.92;;;34.40;44.60;;;;;;5053568;28;20033;-64
2022/06/16 13:15:40;;;;;;;8.55;3.83;;;34.00;45.00;;;;;;5055340;28;20066;-64
2022/06/16 13:18:16;;;;;;;8.20;4.10;;;33.80;45.30;;;;;;5055365;28;20040;-64
2022/06/16 13:20:46;;;;;;;9.32;3.80;;;33.60;45.50;;;;;;5055029;28;20024;-64
2022/06/16 13:23:17;;;;;;;9.68;3.97;;;33.40;45.90;;;;;;5054475;28;20489;-64
2022/06/16 13:25:46;;;;;;;;;;;33.30;45.80;;;;;;5047801;28;20019;-64
2022/06/16 13:28:35;;;;;;;10.70;4.55;;;33.10;46.00;;;;;;5086480;28;20300;-64
2022/06/16 13:31:10;;;;;;;9.90;4.80;;;32.90;46.30;;;;;;5054157;28;20048;-67
2022/06/16 13:34:10;;;;;;;6.45;4.00;;;32.80;46.30;;;;;;5053993;28;20362;-64
2022/06/16 13:36:35;;;;;;;10.40;4.50;;;32.60;46.90;;;;;;5054748;28;20020;-65
2022/06/16 13:39:05;;;;;;;10.50;4.13;;;32.30;47.00;;;;;;5055045;28;20112;-69
2022/06/16 13:41:33;;;;;;;11.07;4.32;;;32.10;47.40;;;;;;5055363;28;20111;-64